TED STEVENS ANCHORAGE INTL

PANC (ANC)
Anchorage, Alaska
Towered

Vatsim Metar:
PANC 311453Z 19004KT 10SM FEW005 SCT030 SCT060 BKN150 09/07 A2971 RMK AO2 SLP063 T00890072 58003

No ATC Online

Traffic

Inbound:
Ident
Type
Name
ETA
Phase
ASA6664
B738
Dominik Klein ETNL
16:45 Z
Cruse
MXA033
A332
MARCO ANTONIO MARTINEZ BAZA MMMX
11:34 Z
Taxiing Out
GTI8711
H/B744/L
Stephen Bell YPAD
19:16 Z
Climb
GTI3283
H/B744
Frank Johnson PHOG
Unknown
PAC948
H/B748/L
1071726 CYQX
20:30 Z
Cruse
GTI8672
H/B744/L
1323546 EHAM
20:56 Z
Cruse
UPS77A
H/B748/L
Liam Duffy KRDU
20:58 Z
Cruse
CSN411
H/B77L/L
Ken ZGGG
Unknown

Outbound:
Ident
Type
Name
Destination
Phase
PC7680
H/B744
Daniel Ferreira SKBO
SKBO
Boarding
CAL5237
H/B744/H
Markus Schneider LSZH
RCTP
Climb